Time;durP1;ratioP1;P1;durP2;ratioP2;P2;SDS_P1;SDS_P2;PMS_P1;PMS_P2;Temp;Humidity;BMP_temperature;BMP_pressure;BME280_temperature;BME280_humidity;BME280_pressure;Samples;Min_cycle;Max_cycle;Signal;HPM_P1;HPM_P2
2023/05/23 00:00:23;;;;;;;28.95;8.77;;;13.70;99.90;;;;;;5093536;28;20036;-83
2023/05/23 00:02:48;;;;;;;20.33;7.05;;;13.70;99.90;;;;;;5094428;28;20497;-83
2023/05/23 00:05:16;;;;;;;19.30;6.82;;;13.60;99.90;;;;;;5094242;28;20054;-82
2023/05/23 00:07:43;;;;;;;34.97;9.88;;;13.70;99.90;;;;;;5092806;28;20051;-82
2023/05/23 00:10:10;;;;;;;26.63;8.23;;;13.70;99.90;;;;;;5094237;28;20039;-82
2023/05/23 00:12:38;;;;;;;23.05;9.10;;;13.70;99.90;;;;;;5089806;28;20047;-83
2023/05/23 00:15:06;;;;;;;24.17;9.30;;;13.70;99.90;;;;;;5073349;28;20534;-83
2023/05/23 00:17:32;;;;;;;22.17;7.60;;;13.70;99.90;;;;;;5094148;28;20062;-84
2023/05/23 00:19:58;;;;;;;18.67;8.80;;;13.60;99.90;;;;;;5094212;28;20487;-83
2023/05/23 00:22:24;;;;;;;24.15;8.57;;;13.60;99.90;;;;;;5094624;28;20048;-82
2023/05/23 00:24:49;;;;;;;18.70;7.80;;;13.70;99.90;;;;;;5094307;28;20036;-85
2023/05/23 00:27:15;;;;;;;19.60;8.68;;;13.60;99.90;;;;;;5084071;28;20084;-82
2023/05/23 00:29:41;;;;;;;19.83;8.45;;;13.70;99.90;;;;;;5073565;28;20036;-83
2023/05/23 00:32:06;;;;;;;26.60;9.88;;;13.60;99.90;;;;;;5055162;28;20964;-83
2023/05/23 00:34:33;;;;;;;18.55;8.65;;;13.60;99.90;;;;;;5089536;28;20048;-83
2023/05/23 00:37:01;;;;;;;21.88;10.35;;;13.60;99.90;;;;;;5075675;28;20047;-83
2023/05/23 00:39:26;;;;;;;22.70;11.18;;;13.60;99.90;;;;;;5093672;28;20039;-85
2023/05/23 00:41:52;;;;;;;18.38;11.52;;;13.60;99.90;;;;;;5093312;28;20427;-82
2023/05/23 00:44:18;;;;;;;27.08;10.68;;;13.60;99.90;;;;;;5084943;28;20080;-83
2023/05/23 00:46:48;;;;;;;16.00;8.57;;;13.60;99.90;;;;;;5073166;28;20455;-82
2023/05/23 00:49:14;;;;;;;17.63;8.20;;;13.60;99.90;;;;;;5073023;28;20037;-83
2023/05/23 00:51:42;;;;;;;18.33;7.25;;;13.50;99.90;;;;;;5073254;28;20049;-82
2023/05/23 00:54:08;;;;;;;13.15;7.55;;;13.60;99.90;;;;;;5073168;28;20035;-83
2023/05/23 00:56:35;;;;;;;21.38;8.55;;;13.40;99.90;;;;;;5073245;28;20135;-83
2023/05/23 00:59:01;;;;;;;16.55;8.00;;;13.50;99.90;;;;;;5055169;28;20056;-83
2023/05/23 01:01:27;;;;;;;15.07;6.97;;;13.50;99.90;;;;;;5072698;28;20044;-84
2023/05/23 01:03:52;;;;;;;15.07;6.00;;;13.50;99.90;;;;;;5084718;28;20048;-82
2023/05/23 01:06:19;;;;;;;13.68;6.55;;;13.50;99.90;;;;;;5093300;28;20079;-84
2023/05/23 01:08:44;;;;;;;13.77;5.35;;;13.50;99.90;;;;;;5093049;28;20040;-83
2023/05/23 01:11:26;;;;;;;11.18;4.93;;;13.50;99.90;;;;;;5073981;28;20051;-82
2023/05/23 01:14:03;;;;;;;7.80;4.18;;;13.40;99.90;;;;;;5074979;28;20500;-82
2023/05/23 01:16:41;;;;;;;9.15;4.15;;;13.40;99.90;;;;;;5074801;28;20052;-82
2023/05/23 01:19:57;;;;;;;13.70;3.33;;;13.30;99.90;;;;;;5063701;28;20071;-82
2023/05/23 01:22:40;;;;;;;18.55;4.70;;;13.30;99.90;;;;;;5072539;28;20479;-82
2023/05/23 01:25:26;;;;;;;12.27;3.72;;;13.20;99.90;;;;;;5083213;28;20123;-82
2023/05/23 01:27:55;;;;;;;12.52;3.67;;;13.30;99.90;;;;;;5092626;28;20544;-82
2023/05/23 01:30:24;;;;;;;14.68;5.18;;;13.20;99.90;;;;;;5092026;28;20040;-84
2023/05/23 01:32:54;;;;;;;15.75;4.93;;;13.20;99.90;;;;;;5092715;28;20495;-81
2023/05/23 01:35:27;;;;;;;11.57;4.13;;;13.10;99.90;;;;;;5092928;28;20050;-82
2023/05/23 01:37:54;;;;;;;16.58;4.40;;;13.10;99.90;;;;;;5092786;28;20040;-82
2023/05/23 01:40:20;;;;;;;18.33;5.40;;;13.10;99.90;;;;;;5092857;28;20048;-82
2023/05/23 01:42:46;;;;;;;14.93;5.22;;;13.00;99.90;;;;;;5074480;28;20457;-82
2023/05/23 01:45:13;;;;;;;20.08;5.65;;;12.90;99.90;;;;;;5081842;28;20036;-84
2023/05/23 01:47:40;;;;;;;19.80;5.03;;;12.90;99.90;;;;;;5098790;28;20071;-82
2023/05/23 01:50:07;;;;;;;18.17;5.13;;;12.90;99.90;;;;;;5081192;28;20046;-82
2023/05/23 01:52:34;;;;;;;19.00;5.13;;;12.80;99.90;;;;;;5097070;28;20034;-82
2023/05/23 01:55:00;;;;;;;16.58;5.78;;;12.70;99.90;;;;;;5099557;28;20085;-82
2023/05/23 01:57:29;;;;;;;23.15;6.32;;;12.70;99.90;;;;;;5099163;28;20044;-82
2023/05/23 01:59:55;;;;;;;15.60;5.43;;;12.70;99.90;;;;;;5062543;28;20048;-82
2023/05/23 02:02:21;;;;;;;15.43;5.57;;;12.80;99.90;;;;;;5099185;28;20047;-82
2023/05/23 02:04:48;;;;;;;13.88;5.80;;;12.70;99.90;;;;;;5093336;28;20047;-82
2023/05/23 02:07:14;;;;;;;19.17;5.97;;;12.60;99.90;;;;;;5098450;28;20040;-82
2023/05/23 02:09:39;;;;;;;19.70;5.40;;;12.60;99.90;;;;;;5099314;28;20369;-83
2023/05/23 02:12:05;;;;;;;21.98;5.47;;;12.60;99.90;;;;;;5050356;28;20072;-83
2023/05/23 02:14:31;;;;;;;13.38;5.18;;;12.60;99.90;;;;;;5078885;28;20124;-82
2023/05/23 02:16:57;;;;;;;13.63;5.03;;;12.50;99.90;;;;;;5078536;28;20044;-83
2023/05/23 02:19:22;;;;;;;10.43;4.50;;;12.50;99.90;;;;;;5062218;28;20045;-82
2023/05/23 02:21:48;;;;;;;16.52;4.40;;;12.60;99.90;;;;;;5079838;28;20132;-83
2023/05/23 02:24:14;;;;;;;13.35;4.38;;;12.40;99.90;;;;;;5060912;28;20036;-83
2023/05/23 02:26:40;;;;;;;17.90;4.20;;;12.40;99.90;;;;;;5078798;28;20052;-82
2023/05/23 02:29:06;;;;;;;16.73;4.25;;;12.40;99.90;;;;;;5078667;28;20045;-82
2023/05/23 02:31:31;;;;;;;9.20;3.72;;;12.40;99.90;;;;;;5060740;28;20140;-82
2023/05/23 02:33:57;;;;;;;11.48;4.00;;;12.50;99.90;;;;;;5087336;28;20048;-82
2023/05/23 02:36:23;;;;;;;13.55;3.97;;;12.30;99.90;;;;;;5099032;28;20547;-83
2023/05/23 02:38:48;;;;;;;14.43;4.07;;;12.20;99.90;;;;;;5080733;28;20052;-83
2023/05/23 02:41:14;;;;;;;22.92;4.30;;;12.20;99.90;;;;;;5080069;28;20442;-82
2023/05/23 02:43:40;;;;;;;11.50;3.97;;;12.10;99.90;;;;;;5078524;28;20061;-83
2023/05/23 02:46:05;;;;;;;17.42;4.72;;;12.10;99.90;;;;;;5078495;28;20044;-82
2023/05/23 02:48:31;;;;;;;10.68;4.03;;;12.10;99.90;;;;;;5078287;28;20102;-83
2023/05/23 02:50:56;;;;;;;15.52;4.55;;;12.00;99.90;;;;;;5083609;28;20039;-84
2023/05/23 02:53:22;;;;;;;18.85;5.60;;;12.00;99.90;;;;;;5092557;28;20044;-83
2023/05/23 02:55:48;;;;;;;16.48;3.83;;;11.90;99.90;;;;;;5091047;28;20101;-83
2023/05/23 02:58:13;;;;;;;13.05;5.13;;;11.90;99.90;;;;;;5095678;28;20044;-83
2023/05/23 03:00:39;;;;;;;22.98;5.80;;;12.00;99.90;;;;;;5075832;28;20059;-82
2023/05/23 03:03:05;;;;;;;9.43;4.00;;;12.30;99.90;;;;;;5095326;28;20110;-83
2023/05/23 03:05:30;;;;;;;16.63;5.78;;;12.00;99.90;;;;;;5086249;28;20393;-83
2023/05/23 03:07:56;;;;;;;18.98;4.72;;;12.70;99.90;;;;;;5094577;28;20435;-83
2023/05/23 03:10:22;;;;;;;15.10;4.35;;;11.90;99.90;;;;;;5075625;28;20515;-82
2023/05/23 03:12:47;;;;;;;17.10;4.40;;;12.10;99.90;;;;;;5094539;28;20070;-82
2023/05/23 03:15:13;;;;;;;21.73;5.68;;;11.90;99.90;;;;;;5077188;28;20040;-82
2023/05/23 03:17:39;;;;;;;20.98;5.53;;;11.90;99.90;;;;;;5095260;28;20054;-82
2023/05/23 03:20:08;;;;;;;13.55;4.22;;;11.90;99.90;;;;;;5076876;28;20484;-82
2023/05/23 03:22:34;;;;;;;21.95;4.75;;;11.90;99.90;;;;;;5079234;28;20117;-82
2023/05/23 03:25:00;;;;;;;29.70;6.20;;;11.90;99.90;;;;;;5068129;28;20051;-82
2023/05/23 03:27:26;;;;;;;14.35;5.18;;;12.10;99.90;;;;;;5092888;28;20044;-83
2023/05/23 03:29:51;;;;;;;15.20;4.47;;;12.00;99.90;;;;;;5074668;28;20044;-81
2023/05/23 03:32:17;;;;;;;18.80;4.43;;;11.80;99.90;;;;;;5074613;28;20036;-82
2023/05/23 03:34:43;;;;;;;11.57;4.10;;;12.00;99.90;;;;;;5074849;28;20045;-83
2023/05/23 03:37:08;;;;;;;15.50;4.05;;;12.10;99.90;;;;;;5056922;28;20435;-84
2023/05/23 03:39:34;;;;;;;17.08;3.92;;;11.90;99.90;;;;;;5074784;28;20044;-83
2023/05/23 03:41:59;;;;;;;15.50;4.13;;;11.90;99.90;;;;;;5056245;28;20044;-84
2023/05/23 03:44:25;;;;;;;11.63;3.65;;;11.90;99.90;;;;;;5074422;28;20060;-84
2023/05/23 03:46:51;;;;;;;10.20;2.90;;;11.80;99.90;;;;;;5092836;28;20048;-84
2023/05/23 03:49:17;;;;;;;11.10;3.20;;;11.80;99.90;;;;;;5092405;28;20046;-86
2023/05/23 03:51:42;;;;;;;14.20;3.75;;;11.80;99.90;;;;;;5094715;28;20127;-85
2023/05/23 03:54:08;;;;;;;12.52;4.07;;;12.00;99.90;;;;;;5076541;28;20040;-87
2023/05/23 03:56:34;;;;;;;9.45;2.83;;;11.80;99.90;;;;;;5094485;28;20054;-86
2023/05/23 03:59:00;;;;;;;12.00;3.42;;;11.80;99.90;;;;;;5096049;28;20052;-88
2023/05/23 04:01:26;;;;;;;10.32;2.90;;;11.80;99.90;;;;;;5094333;28;20040;-88
2023/05/23 04:03:52;;;;;;;8.23;2.60;;;11.80;99.90;;;;;;5075069;28;20056;-85
2023/05/23 04:06:19;;;;;;;19.50;4.50;;;11.90;99.90;;;;;;5055648;28;20040;-86
2023/05/23 04:08:45;;;;;;;15.93;2.67;;;11.80;99.90;;;;;;5073280;28;20500;-85
2023/05/23 04:11:10;;;;;;;13.23;2.38;;;11.80;99.90;;;;;;5088234;28;20119;-86
2023/05/23 04:13:37;;;;;;;10.82;2.63;;;12.00;99.90;;;;;;5094154;28;20044;-87
2023/05/23 04:16:04;;;;;;;9.35;2.13;;;11.80;99.90;;;;;;5094146;28;20036;-85
2023/05/23 04:18:32;;;;;;;8.52;1.92;;;11.80;99.90;;;;;;5093908;28;20131;-86
2023/05/23 04:20:58;;;;;;;9.43;1.77;;;11.70;99.90;;;;;;5075262;28;20036;-87
2023/05/23 04:23:24;;;;;;;10.57;2.40;;;11.70;99.90;;;;;;5094086;28;20396;-86
2023/05/23 04:25:50;;;;;;;10.05;2.35;;;11.80;99.90;;;;;;5092286;28;20048;-84
2023/05/23 04:28:17;;;;;;;10.00;2.30;;;11.80;99.90;;;;;;5075884;28;20396;-86
2023/05/23 04:30:43;;;;;;;11.65;2.60;;;11.80;99.90;;;;;;5080566;28;20037;-85
2023/05/23 04:33:10;;;;;;;7.75;1.85;;;11.80;99.90;;;;;;5073590;28;20070;-86
2023/05/23 04:35:39;;;;;;;8.75;1.92;;;11.80;99.90;;;;;;5055449;28;20124;-86
2023/05/23 04:38:05;;;;;;;12.20;1.75;;;11.70;99.90;;;;;;5090045;28;20054;-86
2023/05/23 04:40:31;;;;;;;6.03;2.13;;;11.70;99.90;;;;;;5093739;28;20036;-84
2023/05/23 04:42:56;;;;;;;7.75;2.40;;;11.70;99.90;;;;;;5075110;28;20114;-86
2023/05/23 04:45:22;;;;;;;15.05;2.97;;;11.80;99.90;;;;;;5088016;28;20052;-86
2023/05/23 04:47:48;;;;;;;18.33;3.55;;;11.70;99.90;;;;;;5073285;28;20056;-86
2023/05/23 04:50:14;;;;;;;9.52;3.35;;;11.60;99.90;;;;;;5073205;28;20047;-83
2023/05/23 04:52:40;;;;;;;17.92;4.20;;;11.70;99.90;;;;;;5073145;28;20141;-88
2023/05/23 04:55:07;;;;;;;13.25;3.85;;;11.60;99.90;;;;;;5055339;28;20059;-87
2023/05/23 04:57:33;;;;;;;14.70;4.03;;;11.60;99.90;;;;;;5055079;28;20121;-85
2023/05/23 05:00:00;;;;;;;14.38;5.20;;;11.50;99.90;;;;;;5073190;28;20068;-84
2023/05/23 05:02:26;;;;;;;15.13;4.82;;;11.50;99.90;;;;;;5072756;28;20472;-87
2023/05/23 05:04:52;;;;;;;14.50;4.75;;;11.40;99.90;;;;;;5055355;28;20040;-86
2023/05/23 05:07:18;;;;;;;17.90;4.45;;;11.50;99.90;;;;;;5073004;28;20504;-85
2023/05/23 05:09:43;;;;;;;12.13;4.38;;;11.50;99.90;;;;;;5072965;28;20408;-87
2023/05/23 05:12:09;;;;;;;13.35;3.92;;;11.40;99.90;;;;;;5073026;28;20051;-87
2023/05/23 05:14:36;;;;;;;16.63;3.70;;;11.50;99.90;;;;;;5072931;28;20550;-87
2023/05/23 05:17:02;;;;;;;12.70;3.90;;;11.40;99.90;;;;;;5072482;28;20091;-87
2023/05/23 05:19:28;;;;;;;14.85;3.90;;;11.40;99.90;;;;;;5072292;28;20084;-85
2023/05/23 05:21:54;;;;;;;10.85;3.35;;;11.30;99.90;;;;;;5054611;28;20076;-86
2023/05/23 05:24:22;;;;;;;12.45;4.43;;;11.30;99.90;;;;;;5072564;28;20040;-88
2023/05/23 05:26:48;;;;;;;14.95;4.57;;;11.30;99.90;;;;;;5072741;28;20083;-88
2023/05/23 05:29:14;;;;;;;16.02;4.82;;;11.30;99.90;;;;;;5079277;28;20496;-84
2023/05/23 05:31:41;;;;;;;15.68;3.42;;;11.20;99.90;;;;;;5092941;28;20040;-87
2023/05/23 05:34:06;;;;;;;12.77;3.95;;;11.30;99.90;;;;;;5074823;28;20048;-87
2023/05/23 05:36:32;;;;;;;15.57;4.13;;;11.20;99.90;;;;;;5073825;28;20123;-85
2023/05/23 05:38:58;;;;;;;11.52;3.75;;;11.20;99.90;;;;;;5092859;28;20140;-83
2023/05/23 05:41:26;;;;;;;8.95;3.60;;;11.30;99.90;;;;;;5090658;28;20177;-83
2023/05/23 05:43:51;;;;;;;13.35;3.35;;;11.30;99.90;;;;;;5085450;28;20143;-83
2023/05/23 05:46:17;;;;;;;11.25;2.97;;;11.20;99.90;;;;;;5072583;28;20076;-83
2023/05/23 05:48:43;;;;;;;13.63;2.78;;;11.10;99.90;;;;;;5080855;28;20047;-83
2023/05/23 05:51:08;;;;;;;11.20;2.10;;;11.20;99.90;;;;;;5072316;28;20037;-82
2023/05/23 05:53:34;;;;;;;5.82;2.00;;;11.20;99.90;;;;;;5072565;28;20084;-82
2023/05/23 05:56:01;;;;;;;12.48;3.78;;;11.20;99.90;;;;;;5054553;28;20388;-82
2023/05/23 05:58:26;;;;;;;7.43;2.28;;;11.20;99.90;;;;;;5072231;28;20048;-83
2023/05/23 06:00:52;;;;;;;6.90;2.03;;;11.40;99.90;;;;;;5072323;28;20053;-86
2023/05/23 06:03:18;;;;;;;10.00;1.92;;;11.20;99.90;;;;;;5072391;28;20510;-85
2023/05/23 06:05:43;;;;;;;9.27;1.73;;;11.10;99.90;;;;;;5072314;28;20112;-83
2023/05/23 06:08:09;;;;;;;10.82;2.17;;;11.10;99.90;;;;;;5039814;28;20060;-84
2023/05/23 06:10:38;;;;;;;9.55;2.33;;;11.20;99.90;;;;;;5091569;28;20036;-83
2023/05/23 06:13:03;;;;;;;8.55;2.00;;;11.00;99.90;;;;;;5066243;28;20044;-83
2023/05/23 06:15:29;;;;;;;11.40;2.40;;;11.10;99.90;;;;;;5072132;28;20055;-86
2023/05/23 06:17:55;;;;;;;12.40;3.08;;;11.20;99.90;;;;;;5072095;28;20486;-85
2023/05/23 06:20:21;;;;;;;12.82;2.53;;;11.10;99.90;;;;;;5054196;28;20488;-86
2023/05/23 06:22:46;;;;;;;16.73;2.45;;;11.00;99.90;;;;;;5054218;28;20052;-86
2023/05/23 06:25:12;;;;;;;15.57;2.65;;;11.00;99.90;;;;;;5072109;28;20053;-84
2023/05/23 06:27:38;;;;;;;13.15;3.10;;;11.10;99.90;;;;;;5071899;28;20382;-84
2023/05/23 06:30:04;;;;;;;15.65;2.85;;;11.10;99.90;;;;;;5072262;28;21003;-82
2023/05/23 06:32:30;;;;;;;18.45;2.63;;;11.10;99.90;;;;;;5075769;28;20048;-83
2023/05/23 06:34:55;;;;;;;13.85;2.80;;;11.00;99.90;;;;;;5075674;28;20047;-85
2023/05/23 06:37:21;;;;;;;13.00;2.70;;;11.20;99.90;;;;;;5089593;28;20087;-84
2023/05/23 06:39:47;;;;;;;17.23;2.60;;;11.30;99.90;;;;;;5077693;28;20044;-83
2023/05/23 06:42:13;;;;;;;14.07;2.08;;;11.30;99.90;;;;;;5093898;28;20050;-85
2023/05/23 06:44:39;;;;;;;10.63;2.63;;;11.40;99.90;;;;;;5087131;28;20041;-85
2023/05/23 06:47:05;;;;;;;12.90;2.30;;;11.40;99.90;;;;;;5075398;28;20040;-83
2023/05/23 06:49:30;;;;;;;21.23;2.50;;;11.50;99.90;;;;;;5074717;28;20048;-84
2023/05/23 06:51:56;;;;;;;13.82;3.15;;;11.40;99.90;;;;;;5095414;28;20064;-81
2023/05/23 06:54:22;;;;;;;15.65;2.50;;;11.40;99.90;;;;;;5079410;28;20097;-84
2023/05/23 06:56:47;;;;;;;16.52;1.90;;;11.50;99.90;;;;;;5093889;28;20081;-83
2023/05/23 06:59:13;;;;;;;13.48;2.25;;;11.50;99.90;;;;;;5088911;28;20064;-86
2023/05/23 07:01:39;;;;;;;12.63;2.05;;;11.60;99.90;;;;;;5075358;28;20041;-83
2023/05/23 07:04:04;;;;;;;17.40;3.55;;;11.60;99.90;;;;;;5075460;28;20101;-83
2023/05/23 07:06:31;;;;;;;13.25;1.63;;;11.80;99.90;;;;;;5075182;28;20412;-84
2023/05/23 07:08:57;;;;;;;18.35;2.13;;;11.60;99.90;;;;;;5076172;28;20049;-82
2023/05/23 07:11:23;;;;;;;17.00;1.98;;;11.80;99.90;;;;;;5080518;28;20036;-84
2023/05/23 07:13:48;;;;;;;8.88;2.95;;;11.70;99.90;;;;;;5092493;28;20040;-83
2023/05/23 07:16:14;;;;;;;12.98;1.52;;;11.70;99.90;;;;;;5095424;28;20370;-82
2023/05/23 07:18:40;;;;;;;14.82;2.13;;;11.80;99.90;;;;;;5095439;28;20054;-82
2023/05/23 07:21:06;;;;;;;11.30;2.05;;;11.80;99.90;;;;;;5095181;28;20075;-82
2023/05/23 07:23:33;;;;;;;12.40;2.10;;;11.80;99.90;;;;;;5095775;28;20070;-82
2023/05/23 07:25:59;;;;;;;14.68;2.78;;;11.80;99.90;;;;;;5059773;28;20358;-82
2023/05/23 07:28:25;;;;;;;18.77;2.30;;;11.80;99.90;;;;;;5074234;28;20526;-81
2023/05/23 07:30:51;;;;;;;8.15;1.63;;;11.90;99.90;;;;;;5077136;28;20115;-82
2023/05/23 07:33:16;;;;;;;11.77;1.90;;;12.00;99.90;;;;;;5091886;28;20044;-82
2023/05/23 07:35:43;;;;;;;9.68;1.85;;;12.00;99.90;;;;;;5086200;28;20086;-83
2023/05/23 07:38:09;;;;;;;8.75;1.48;;;12.00;99.90;;;;;;5076683;28;20512;-84
2023/05/23 07:40:36;;;;;;;16.95;2.10;;;12.10;99.90;;;;;;5076724;28;20055;-84
2023/05/23 07:43:02;;;;;;;21.63;1.90;;;12.50;99.90;;;;;;5073778;28;20106;-82
2023/05/23 07:45:27;;;;;;;8.48;1.45;;;12.40;99.90;;;;;;5056465;28;20123;-83
2023/05/23 07:47:53;;;;;;;22.33;2.13;;;12.50;99.90;;;;;;5074477;28;20129;-84
2023/05/23 07:50:19;;;;;;;19.75;2.50;;;12.50;99.90;;;;;;5074374;28;20051;-85
2023/05/23 07:52:45;;;;;;;24.10;2.80;;;12.50;99.90;;;;;;5056535;28;20043;-84
2023/05/23 07:55:11;;;;;;;13.10;2.05;;;12.40;99.90;;;;;;5075365;28;20051;-85
2023/05/23 07:57:36;;;;;;;13.93;1.70;;;12.50;99.90;;;;;;5074590;28;20127;-85
2023/05/23 08:00:04;;;;;;;18.67;4.32;;;12.50;99.90;;;;;;5056568;28;20455;-84
2023/05/23 08:02:30;;;;;;;18.75;1.80;;;12.60;99.90;;;;;;5074197;28;20404;-85
2023/05/23 08:04:55;;;;;;;23.67;3.08;;;12.50;99.90;;;;;;5074083;28;20048;-85
2023/05/23 08:07:21;;;;;;;9.95;1.60;;;12.50;99.90;;;;;;5085742;28;20052;-83
2023/05/23 08:09:47;;;;;;;9.43;1.67;;;12.80;99.90;;;;;;5094124;28;20048;-82
2023/05/23 08:12:13;;;;;;;18.13;2.78;;;12.60;99.90;;;;;;5093801;28;20395;-82
2023/05/23 08:14:38;;;;;;;12.88;1.88;;;12.60;99.90;;;;;;5060645;28;20488;-82
2023/05/23 08:17:04;;;;;;;18.50;1.90;;;12.60;99.90;;;;;;5077404;28;20400;-86
2023/05/23 08:19:30;;;;;;;17.67;1.92;;;12.70;99.90;;;;;;5074224;28;20127;-85
2023/05/23 08:21:56;;;;;;;14.10;2.08;;;13.00;99.90;;;;;;5074471;28;20047;-84
2023/05/23 08:24:21;;;;;;;15.75;2.55;;;12.80;99.90;;;;;;5083029;28;20512;-88
2023/05/23 08:26:48;;;;;;;14.30;2.22;;;13.10;99.90;;;;;;5084523;28;20078;-86
2023/05/23 08:29:14;;;;;;;10.32;1.30;;;13.10;99.90;;;;;;5073996;28;20036;-83
2023/05/23 08:31:40;;;;;;;11.82;1.85;;;13.30;99.90;;;;;;5080397;28;20097;-85
2023/05/23 08:34:06;;;;;;;16.17;2.42;;;13.40;99.90;;;;;;5093794;28;20046;-85
2023/05/23 08:36:35;;;;;;;12.98;2.22;;;13.30;99.90;;;;;;5085600;28;20060;-84
2023/05/23 08:39:01;;;;;;;10.15;1.83;;;13.40;99.90;;;;;;5073770;28;20077;-83
2023/05/23 08:41:28;;;;;;;13.88;1.55;;;13.30;99.90;;;;;;5055079;28;20055;-86
2023/05/23 08:43:55;;;;;;;18.73;2.10;;;13.30;99.90;;;;;;5073282;28;20063;-87
2023/05/23 08:46:22;;;;;;;10.15;2.10;;;13.40;99.90;;;;;;5074451;28;20044;-83
2023/05/23 08:48:54;;;;;;;17.08;3.05;;;13.40;99.90;;;;;;5087691;28;20090;-88
2023/05/23 08:51:26;;;;;;;12.30;1.70;;;13.50;99.90;;;;;;5073516;28;20129;-84
2023/05/23 08:53:55;;;;;;;9.57;1.83;;;13.50;99.90;;;;;;5073758;28;20044;-83
2023/05/23 08:56:22;;;;;;;10.13;1.40;;;13.70;99.90;;;;;;5056622;28;20178;-88
2023/05/23 08:58:48;;;;;;;9.48;1.13;;;13.60;99.90;;;;;;5087559;28;20374;-83
2023/05/23 09:01:17;;;;;;;10.80;1.45;;;13.80;99.90;;;;;;5092116;28;20081;-84
2023/05/23 09:03:43;;;;;;;12.60;1.83;;;13.60;99.90;;;;;;5093570;28;20476;-88
2023/05/23 09:06:09;;;;;;;10.15;1.92;;;13.60;99.90;;;;;;5073456;28;20045;-86
2023/05/23 09:08:36;;;;;;;7.35;1.30;;;13.60;99.90;;;;;;5075031;28;20044;-87
2023/05/23 09:11:05;;;;;;;7.25;1.70;;;13.60;99.90;;;;;;5086373;28;20038;-83
2023/05/23 09:13:32;;;;;;;13.48;1.90;;;13.60;99.90;;;;;;5072981;28;20086;-85
2023/05/23 09:16:01;;;;;;;9.30;1.52;;;13.50;99.90;;;;;;5072994;28;20072;-88
2023/05/23 09:18:32;;;;;;;6.80;1.45;;;13.50;99.90;;;;;;5072599;28;20052;-84
2023/05/23 09:20:57;;;;;;;11.55;1.85;;;13.60;99.90;;;;;;5073996;28;20044;-85
2023/05/23 09:23:23;;;;;;;10.63;1.23;;;13.60;99.90;;;;;;5073032;28;20049;-87
2023/05/23 09:25:49;;;;;;;10.70;1.40;;;13.60;99.90;;;;;;5072584;28;20048;-83
2023/05/23 09:28:14;;;;;;;8.23;1.65;;;13.70;99.90;;;;;;5054958;28;20048;-84
2023/05/23 09:30:40;;;;;;;9.98;1.70;;;13.90;99.90;;;;;;5072951;28;20522;-88
2023/05/23 09:33:06;;;;;;;12.52;1.88;;;13.90;99.90;;;;;;5086616;28;20064;-86
2023/05/23 09:35:32;;;;;;;6.43;1.35;;;13.20;99.90;;;;;;5092360;28;20039;-88
2023/05/23 09:37:58;;;;;;;10.43;1.30;;;13.90;99.90;;;;;;5075500;28;20046;-87
2023/05/23 09:40:31;;;;;;;9.75;1.42;;;14.10;99.90;;;;;;5072548;28;20075;-88
2023/05/23 09:43:02;;;;;;;11.63;1.60;;;14.20;99.90;;;;;;5091111;28;20416;-83
2023/05/23 09:45:30;;;;;;;8.57;1.55;;;14.20;99.90;;;;;;5094033;28;20142;-83
2023/05/23 09:47:55;;;;;;;14.18;2.17;;;14.40;99.90;;;;;;5075449;28;20089;-88
2023/05/23 09:50:22;;;;;;;15.48;1.83;;;14.50;99.90;;;;;;5076507;28;20435;-90
2023/05/23 09:52:48;;;;;;;15.13;1.75;;;14.40;99.90;;;;;;5093148;28;20441;-85
2023/05/23 09:55:14;;;;;;;11.40;1.45;;;14.30;99.90;;;;;;5093045;28;20369;-84
2023/05/23 09:57:41;;;;;;;6.60;1.17;;;14.40;99.90;;;;;;5072368;28;20051;-84
2023/05/23 10:00:14;;;;;;;7.10;1.17;;;14.40;99.90;;;;;;5079371;28;20125;-88
2023/05/23 10:02:58;;;;;;;12.10;2.15;;;14.60;99.90;;;;;;5072054;28;20501;-86
2023/05/23 10:05:32;;;;;;;11.50;1.58;;;14.50;99.90;;;;;;5075425;28;20040;-89
2023/05/23 10:08:06;;;;;;;9.57;1.38;;;14.40;99.90;;;;;;5076284;28;20524;-82
2023/05/23 10:10:32;;;;;;;12.82;2.38;;;14.50;99.90;;;;;;5077418;28;20052;-82
2023/05/23 10:13:03;;;;;;;12.07;2.75;;;14.40;99.90;;;;;;5076314;28;20049;-82
2023/05/23 10:15:37;;;;;;;14.55;2.03;;;14.50;99.90;;;;;;5082540;28;20044;-82
2023/05/23 10:18:16;;;;;;;12.50;1.30;;;14.30;99.90;;;;;;5077146;28;20075;-82
2023/05/23 10:20:46;;;;;;;8.57;1.75;;;14.20;99.90;;;;;;5096153;28;20043;-82
2023/05/23 10:23:12;;;;;;;9.23;1.20;;;14.30;99.90;;;;;;5075807;28;20044;-85
2023/05/23 10:25:40;;;;;;;11.65;1.30;;;14.40;99.90;;;;;;5075987;28;20047;-81
2023/05/23 10:28:06;;;;;;;10.90;1.45;;;14.80;99.90;;;;;;5057909;28;20393;-82
2023/05/23 10:30:33;;;;;;;11.27;1.75;;;15.10;99.90;;;;;;5075814;28;20036;-81
2023/05/23 10:33:00;;;;;;;9.07;1.50;;;15.10;99.90;;;;;;5076251;28;20427;-82
2023/05/23 10:35:46;;;;;;;9.00;1.35;;;15.30;99.90;;;;;;5057935;28;20051;-83
2023/05/23 10:38:20;;;;;;;;;;;15.30;99.90;;;;;;5058478;28;20495;-83
2023/05/23 10:41:12;;;;;;;13.75;1.45;;;15.10;99.90;;;;;;5076148;28;20377;-81
2023/05/23 10:44:22;;;;;;;7.53;1.02;;;15.10;99.90;;;;;;4962499;28;20060;-82
2023/05/23 10:47:02;;;;;;;13.35;1.98;;;15.40;99.90;;;;;;4976947;28;20058;-82
2023/05/23 10:49:42;;;;;;;13.65;1.95;;;15.30;99.90;;;;;;4993860;28;20112;-83
2023/05/23 10:52:10;;;;;;;7.53;1.17;;;14.90;99.90;;;;;;4993315;28;20070;-82
2023/05/23 10:54:47;;;;;;;13.35;2.20;;;15.00;99.90;;;;;;4992909;28;20050;-82
2023/05/23 10:57:17;;;;;;;14.63;2.42;;;14.90;99.90;;;;;;4979012;28;20054;-82
2023/05/23 10:59:45;;;;;;;11.60;1.45;;;14.70;99.90;;;;;;4976313;28;20415;-82
2023/05/23 11:02:17;;;;;;;7.13;1.63;;;14.60;99.90;;;;;;4975074;28;20109;-81
2023/05/23 11:04:44;;;;;;;10.70;1.17;;;14.40;99.90;;;;;;4981544;28;20045;-82
2023/05/23 11:07:30;;;;;;;11.50;1.65;;;14.40;99.90;;;;;;4960751;28;20173;-83
2023/05/23 11:10:15;;;;;;;6.70;1.27;;;14.00;99.90;;;;;;4967219;28;20062;-83
2023/05/23 11:12:43;;;;;;;12.52;1.42;;;14.00;99.90;;;;;;4974178;28;20051;-83
2023/05/23 11:15:19;;;;;;;7.57;1.23;;;14.00;99.90;;;;;;4976090;28;20061;-82
2023/05/23 11:17:53;;;;;;;10.45;1.85;;;14.10;99.90;;;;;;4973921;28;20104;-85
2023/05/23 11:20:22;;;;;;;8.70;1.63;;;13.90;99.90;;;;;;4995279;28;20053;-84
2023/05/23 11:23:02;;;;;;;9.32;1.20;;;14.10;99.90;;;;;;5075996;28;20052;-83
2023/05/23 11:25:49;;;;;;;9.23;1.63;;;14.60;99.90;;;;;;5080576;28;20106;-83
2023/05/23 11:28:16;;;;;;;11.77;1.50;;;14.60;99.90;;;;;;5075054;28;20044;-83
2023/05/23 11:30:42;;;;;;;10.63;1.73;;;14.70;99.90;;;;;;5074997;28;20053;-82
2023/05/23 11:33:12;;;;;;;5.93;1.38;;;14.70;99.90;;;;;;5075263;28;20063;-85
2023/05/23 11:35:48;;;;;;;8.75;1.65;;;14.50;99.90;;;;;;5075135;28;20452;-81
2023/05/23 11:38:17;;;;;;;8.95;1.48;;;14.90;99.90;;;;;;5057216;28;20072;-82
2023/05/23 11:40:45;;;;;;;7.00;1.25;;;14.80;99.90;;;;;;5078936;28;20043;-89
2023/05/23 11:43:14;;;;;;;11.85;1.40;;;14.80;99.90;;;;;;5094902;28;20052;-83
2023/05/23 11:45:40;;;;;;;10.65;1.70;;;15.10;99.90;;;;;;5095871;28;20052;-83
2023/05/23 11:48:10;;;;;;;9.02;1.45;;;15.30;99.90;;;;;;5088960;28;20105;-83
2023/05/23 11:50:50;;;;;;;9.05;1.52;;;15.40;99.90;;;;;;5057383;28;20495;-83
2023/05/23 11:53:20;;;;;;;7.28;1.35;;;15.40;99.90;;;;;;5080689;28;20044;-84
2023/05/23 11:55:49;;;;;;;6.57;1.40;;;15.30;99.90;;;;;;5094574;28;20177;-85
2023/05/23 11:58:15;;;;;;;10.98;1.27;;;15.40;99.90;;;;;;5094547;28;20052;-86
2023/05/23 12:00:45;;;;;;;15.43;1.60;;;15.20;99.90;;;;;;5092787;28;20050;-82
2023/05/23 12:03:10;;;;;;;7.43;1.20;;;15.30;99.90;;;;;;5074567;28;20051;-84
2023/05/23 12:05:36;;;;;;;8.68;1.00;;;15.10;99.90;;;;;;5086734;28;20044;-86
2023/05/23 12:08:02;;;;;;;11.63;1.27;;;15.10;99.90;;;;;;5059570;28;20408;-87
2023/05/23 12:10:28;;;;;;;10.35;1.73;;;15.10;99.90;;;;;;5074830;28;20048;-92
2023/05/23 12:12:54;;;;;;;10.30;1.23;;;15.10;99.90;;;;;;5085198;28;20059;-91
2023/05/23 12:15:26;;;;;;;9.10;1.08;;;15.50;99.90;;;;;;5094286;28;20052;-80
2023/05/23 12:17:53;;;;;;;8.27;1.00;;;15.50;99.90;;;;;;5074648;28;20449;-88
2023/05/23 12:20:20;;;;;;;14.80;2.13;;;15.40;99.90;;;;;;5075319;28;20052;-89
2023/05/23 12:22:45;;;;;;;12.57;1.50;;;15.40;99.90;;;;;;5079480;28;20476;-93
2023/05/23 12:25:11;;;;;;;8.18;1.63;;;15.30;99.90;;;;;;5093416;28;20078;-88
2023/05/23 12:27:40;;;;;;;7.32;1.17;;;15.30;99.90;;;;;;5085099;28;20067;-85
2023/05/23 12:30:10;;;;;;;6.80;1.02;;;15.60;99.90;;;;;;5076968;28;20049;-94
2023/05/23 12:32:40;;;;;;;8.32;1.10;;;15.70;99.90;;;;;;5078054;28;20048;-94
2023/05/23 12:35:08;;;;;;;9.45;1.13;;;15.80;99.90;;;;;;5073639;28;20068;-90
2023/05/23 12:37:34;;;;;;;10.00;1.25;;;15.60;99.90;;;;;;5067521;28;20048;-90
2023/05/23 12:40:13;;;;;;;8.85;1.42;;;15.50;99.90;;;;;;5089682;28;20045;-90